Latest Weather Observations for Campbelltown

IDN60801

Issued at 11:35 pm EST Friday 22 August 2014 (issued every 30 minutes, with the page automatically refreshed every 10 minutes)

About weather observations | Map of weather stations | Latest weather observations for NSW | Other Formats
Station Details ID: 068257 Name: CAMPBELLTOWN (MOUNT ANNAN) Lat: -34.06 Lon: 150.77 Height: 112.0 m
Data from the previous 72 hours. | See also: Recent months at Campbelltown
Date/Time
EST
Temp
°C
App
Temp
°C
Dew
Point
Rel
Hum
%
Delta-T
°C
Wind Press
QNH
hPa
Press
MSL
hPa
Rain
since 9 am
mm
Dir
 
Spd
km/h
Gust
km/h
Spd
kts
Gust
kts
22/11:30pm 9.9 8.1 9.6 98 0.2 S 9 13 5 7 - - 0.0
22/11:00pm 9.9 8.6 9.8 99 0.1 S 7 15 4 8 - - 0.0
22/10:30pm 8.8 8.1 8.7 99 0.0 S 2 7 1 4 - - 0.0
22/10:00pm 9.1 7.7 9.0 99 0.0 SSW 6 11 3 6 - - 0.0
22/09:30pm 8.6 7.4 8.2 97 0.2 S 4 7 2 4 - - 0.0
22/09:00pm 9.4 8.0 8.8 96 0.3 SSW 6 7 3 4 - - 0.0
22/08:30pm 10.4 9.3 9.9 97 0.3 S 6 9 3 5 - - 0.0
22/08:00pm 9.9 9.6 8.8 93 0.5 CALM 0 6 0 3 - - 0.0
22/07:30pm 10.4 9.1 9.2 92 0.6 S 6 7 3 4 - - 0.0
22/07:00pm 10.8 9.5 9.1 89 0.8 S 6 7 3 4 - - 0.0
22/06:30pm 12.0 10.6 9.7 86 1.2 S 7 11 4 6 - - 0.0
22/06:00pm 12.7 11.2 9.3 80 1.7 SSE 7 11 4 6 - - 0.0
22/05:30pm 13.6 12.0 8.9 73 2.4 SSE 7 15 4 8 - - 0.0
22/05:00pm 15.3 13.7 8.8 65 3.3 SSE 7 20 4 11 - - 0.0
22/04:30pm 16.7 14.7 8.7 59 4.1 SSE 9 17 5 9 - - 0.0
22/04:00pm 17.1 14.2 8.3 56 4.5 SE 13 20 7 11 - - 0.0
22/03:30pm 17.7 15.5 8.0 53 5.0 SSE 9 19 5 10 - - 0.0
22/03:00pm 16.5 14.5 8.5 59 4.1 SE 9 15 5 8 - - 0.0
22/02:30pm 18.1 15.3 8.7 54 4.9 SE 13 19 7 10 - - 0.0
22/02:00pm 17.3 15.5 7.9 54 4.8 SE 7 11 4 6 - - 0.0
22/01:30pm 17.7 15.7 8.6 55 4.7 S 9 17 5 9 - - 0.0
22/01:00pm 18.6 16.6 8.8 53 5.1 SE 9 15 5 8 - - 0.0
22/12:30pm 17.9 16.1 7.9 52 5.1 ESE 7 13 4 7 - - 0.0
22/12:00pm 16.5 14.8 8.5 59 4.1 S 7 11 4 6 - - 0.0
22/11:30am 16.1 14.8 9.3 64 3.5 SSW 6 9 3 5 - - 0.0
22/11:00am 15.4 14.3 10.0 70 2.8 S 6 9 3 5 - - 0.0
22/10:30am 15.1 14.1 10.3 73 2.5 S 6 11 3 6 - - 0.0
22/10:00am 15.5 13.9 10.1 70 2.8 SSE 9 17 5 9 - - 0.0
22/09:30am 15.2 13.2 10.0 71 2.7 S 11 17 6 9 - - 0.0
22/09:00am 14.7 12.7 10.1 74 2.4 SSW 11 17 6 9 - - 0.0
22/08:30am 12.7 11.0 9.7 82 1.5 S 9 13 5 7 - - 0.0
22/08:00am 12.6 11.0 10.1 85 1.3 S 9 17 5 9 - - 0.0
22/07:30am 11.3 9.6 9.9 91 0.7 S 9 13 5 7 - - 0.0
22/07:00am 10.4 9.0 9.5 94 0.5 S 7 9 4 5 - - 0.0
22/06:30am 9.7 8.1 8.9 95 0.4 S 7 11 4 6 - - 0.0
22/06:00am 9.9 8.0 9.1 95 0.4 S 9 13 5 7 - - 0.0
22/05:30am 9.8 8.2 8.9 94 0.4 S 7 11 4 6 - - 0.0
22/05:00am 10.1 8.6 9.2 94 0.4 S 7 13 4 7 - - 0.0
22/04:30am 10.1 8.2 9.0 93 0.5 S 9 13 5 7 - - 0.0
22/04:00am 10.2 8.7 9.3 94 0.5 S 7 13 4 7 - - 0.0
22/03:30am 9.8 8.2 8.9 94 0.4 S 7 13 4 7 - - 0.0
22/03:00am 10.1 8.5 8.7 91 0.7 SSW 7 13 4 7 - - 0.0
22/02:30am 10.4 8.4 8.8 90 0.8 S 9 13 5 7 - - 0.0
22/02:00am 11.0 9.1 8.9 87 1.0 S 9 15 5 8 - - 0.0
22/01:30am 11.2 9.3 9.1 87 1.1 SSW 9 15 5 8 - - 0.0
22/01:00am 11.2 9.8 9.6 90 0.8 SSW 7 13 4 7 - - 0.0
22/12:30am 10.9 9.6 9.3 90 0.8 S 6 9 3 5 - - 0.0
22/12:00am 10.6 9.0 8.9 89 0.8 S 7 11 4 6 - - 0.0
 
Date/Time
EST
Temp
°C
App
Temp
°C
Dew
Point
Rel
Hum
%
Delta-T
°C
Wind Press
QNH
hPa
Press
MSL
hPa
Rain
since 9 am
mm
Dir
 
Spd
km/h
Gust
km/h
Spd
kts
Gust
kts
21/11:30pm 11.3 9.9 9.6 89 0.9 SSW 7 9 4 5 - - 0.0
21/11:00pm 11.2 9.7 9.3 88 1.0 SSW 7 11 4 6 - - 0.0
21/10:30pm 11.7 10.3 9.6 87 1.1 SSW 7 13 4 7 - - 0.0
21/10:00pm 11.5 10.1 8.9 84 1.3 S 6 9 3 5 - - 0.0
21/09:30pm 11.4 9.4 8.8 84 1.3 S 9 15 5 8 - - 0.0
21/09:00pm 11.3 9.6 8.5 83 1.4 S 7 11 4 6 - - 0.0
21/08:30pm 11.8 10.6 9.5 86 1.2 S 6 9 3 5 - - 0.0
21/08:00pm 11.7 10.2 9.3 85 1.2 S 7 11 4 6 - - 0.0
21/07:30pm 11.8 10.4 9.4 85 1.2 S 7 15 4 8 - - 0.0
21/07:00pm 12.1 10.6 9.3 83 1.4 S 7 11 4 6 - - 0.0
21/06:30pm 11.5 10.1 8.7 83 1.4 S 6 9 3 5 - - 0.0
21/06:00pm 12.3 10.8 8.6 78 1.8 S 6 11 3 6 - - 0.0
21/05:30pm 13.2 11.5 8.3 72 2.4 S 7 17 4 9 - - 0.0
21/05:00pm 14.7 12.4 7.5 62 3.6 SSE 9 19 5 10 - - 0.0
21/04:30pm 15.9 13.4 8.4 61 3.8 SE 11 20 6 11 - - 0.0
21/04:00pm 16.6 14.1 8.1 57 4.3 SSE 11 22 6 12 - - 0.0
21/03:30pm 16.6 13.9 7.3 54 4.7 SSE 11 20 6 11 - - 0.0
21/03:00pm 16.3 13.1 6.7 53 4.7 SSE 13 22 7 12 - - 0.0
21/02:30pm 17.0 13.0 6.5 50 5.2 SE 17 26 9 14 - - 0.0
21/02:00pm 17.6 15.0 7.9 53 5.0 ESE 11 22 6 12 - - 0.0
21/01:30pm 16.8 14.3 8.0 56 4.5 SSE 11 20 6 11 - - 0.0
21/01:00pm 17.5 16.0 9.2 58 4.3 SSE 7 15 4 8 - - 0.0
21/12:30pm 16.2 14.4 9.4 64 3.5 SE 9 15 5 8 - - 0.0
21/12:00pm 15.8 14.3 9.0 64 3.5 SE 7 13 4 7 - - 0.0
21/11:30am 15.4 13.9 9.3 67 3.2 SSE 7 15 4 8 - - 0.0
21/11:00am 14.8 13.3 9.2 69 2.9 SSW 7 13 4 7 - - 0.0
21/10:30am 15.4 14.2 9.5 68 3.1 SSE 6 7 3 4 - - 0.0
21/10:00am 14.2 12.3 9.2 72 2.6 SSW 9 15 5 8 - - 0.0
21/09:30am 13.4 11.5 9.1 75 2.2 S 9 17 5 9 - - 0.0
21/09:00am 13.6 11.5 9.6 77 2.1 SSW 11 17 6 9 - - 0.0
21/08:30am 12.0 10.0 8.5 79 1.7 SSW 9 15 5 8 - - 0.0
21/08:00am 10.1 7.8 7.3 83 1.3 SSW 9 11 5 6 - - 0.0
21/07:30am 9.7 7.6 6.8 82 1.4 SSW 7 11 4 6 - - 0.0
21/07:00am 9.1 6.7 6.9 86 1.0 SSW 9 15 5 8 - - 0.0
21/06:30am 8.5 6.1 6.8 89 0.8 S 9 13 5 7 - - 0.0
21/06:00am 7.3 6.3 5.6 89 0.8 CALM 0 0 0 0 - - 0.0
21/05:30am 7.7 5.5 5.2 84 1.1 SSW 6 11 3 6 - - 0.0
21/05:00am 8.8 6.5 5.9 82 1.3 SSW 7 11 4 6 - - 0.0
21/04:30am 8.7 6.4 5.8 82 1.3 S 7 13 4 7 - - 0.0
21/04:00am 8.5 5.8 5.8 83 1.2 S 9 13 5 7 - - 0.0
21/03:30am 8.5 6.2 5.8 83 1.2 S 7 15 4 8 - - 0.0
21/03:00am 8.5 5.8 5.6 82 1.3 S 9 15 5 8 - - 0.0
21/02:30am 8.3 5.7 5.9 85 1.1 S 9 15 5 8 - - 0.0
21/02:00am 7.5 5.2 5.6 88 0.9 S 7 15 4 8 - - 0.0
21/01:30am 7.1 4.7 5.4 89 0.8 S 7 11 4 6 - - 0.0
21/01:00am 7.6 4.9 5.6 87 0.9 S 9 15 5 8 - - 0.0
21/12:30am 7.6 5.3 5.6 87 0.9 S 7 15 4 8 - - 0.0
21/12:00am 8.2 5.5 5.5 83 1.2 S 9 15 5 8 - - 0.0
 
Date/Time
EST
Temp
°C
App
Temp
°C
Dew
Point
Rel
Hum
%
Delta-T
°C
Wind Press
QNH
hPa
Press
MSL
hPa
Rain
since 9 am
mm
Dir
 
Spd
km/h
Gust
km/h
Spd
kts
Gust
kts
20/11:30pm 8.9 5.9 6.2 83 1.2 SSW 11 15 6 8 - - 0.0
20/11:00pm 9.0 6.4 6.3 83 1.3 SSW 9 15 5 8 - - 0.0
20/10:30pm 8.1 5.9 6.2 88 0.9 S 7 15 4 8 - - 0.0
20/10:00pm 7.1 5.0 5.6 90 0.7 SSW 6 9 3 5 - - 0.0
20/09:30pm 7.2 6.2 5.8 91 0.6 CALM 0 0 0 0 - - 0.0
20/09:00pm 8.1 6.1 6.2 88 0.9 SSW 6 7 3 4 - - 0.0
20/08:30pm 8.3 6.3 6.3 87 0.9 S 6 7 3 4 - - 0.0
20/08:00pm 8.8 7.5 6.2 84 1.2 S 2 6 1 3 - - 0.0
20/07:30pm 9.3 7.3 6.2 81 1.4 SSW 6 7 3 4 - - 0.0
20/07:00pm 10.1 8.1 6.1 76 1.9 SSW 6 7 3 4 - - 0.0
20/06:30pm 10.8 8.7 6.0 72 2.2 S 6 9 3 5 - - 0.0
20/06:00pm 11.6 9.3 5.9 68 2.7 S 7 13 4 7 - - 0.0
20/05:30pm 12.4 10.3 5.8 64 3.1 SSE 6 15 3 8 - - 0.0
20/05:00pm 13.3 11.0 5.5 59 3.7 S 7 13 4 7 - - 0.0
20/04:30pm 14.7 12.5 5.2 53 4.5 SSE 6 13 3 7 - - 0.0
20/04:00pm 15.0 11.4 5.0 51 4.7 SE 13 20 7 11 - - 0.0
20/03:30pm 15.8 12.7 5.7 51 4.9 ESE 11 20 6 11 - - 0.0
20/03:00pm 15.8 12.2 5.1 49 5.1 SE 13 20 7 11 - - 0.0
20/02:30pm 16.4 13.4 6.2 51 5.0 ESE 11 20 6 11 - - 0.0
20/02:00pm 16.0 13.2 5.0 48 5.2 SSE 9 13 5 7 - - 0.0
20/01:30pm 16.2 13.5 5.8 50 5.0 S 9 17 5 9 - - 0.0
20/01:00pm 16.7 14.1 6.2 50 5.2 S 9 19 5 10 - - 0.0
20/12:30pm 16.0 13.4 5.9 51 4.9 S 9 17 5 9 - - 0.0
20/12:00pm 16.6 14.0 5.9 49 5.2 SSE 9 17 5 9 - - 0.0
20/11:30am 15.6 12.9 5.5 51 4.8 SW 9 19 5 10 - - 0.0
20/11:00am 14.6 11.4 4.9 52 4.6 SSW 11 20 6 11 - - 0.0
20/10:30am 14.4 11.1 6.3 58 3.9 SSW 13 22 7 12 - - 0.0
20/10:00am 14.1 10.0 6.0 58 3.9 SSW 17 32 9 17 - - 0.0
20/09:30am 13.6 10.6 6.0 60 3.6 SSW 11 19 6 10 - - 0.0
20/09:00am 12.1 8.6 5.5 64 3.1 SW 13 26 7 14 - - 1.8
20/08:30am 11.6 8.1 5.5 66 2.8 SSW 13 20 7 11 - - 1.8
20/08:00am 11.3 8.6 5.6 68 2.7 SW 9 15 5 8 - - 1.8
20/07:30am 10.6 7.9 5.6 71 2.3 SW 9 15 5 8 - - 1.8
20/07:00am 10.1 7.2 4.9 70 2.4 SSW 9 19 5 10 - - 1.8
20/06:30am 9.9 7.0 4.9 71 2.3 SW 9 13 5 7 - - 1.8
20/06:00am 10.2 7.4 5.0 70 2.4 SW 9 13 5 7 - - 1.8
20/05:30am 9.9 6.7 4.9 71 2.3 SW 11 15 6 8 - - 1.8
20/05:00am 9.9 7.0 4.7 70 2.3 SW 9 15 5 8 - - 1.8
20/04:30am 9.8 6.6 5.2 73 2.1 SW 11 15 6 8 - - 1.8
20/04:00am 9.5 7.0 4.7 72 2.2 SW 7 11 4 6 - - 1.8
20/03:30am 9.2 6.7 4.8 74 2.0 WSW 7 9 4 5 - - 1.8
20/03:00am 8.8 6.0 5.0 77 1.7 SW 9 15 5 8 - - 1.8
20/02:30am 8.0 5.4 4.2 77 1.7 SW 7 13 4 7 - - 1.8
20/02:00am 8.2 5.6 4.0 75 1.8 SW 7 11 4 6 - - 1.8
20/01:30am 9.0 6.0 4.0 71 2.2 SW 9 17 5 9 - - 1.8
20/01:00am 8.9 5.9 4.1 72 2.1 SW 9 15 5 8 - - 1.8
20/12:30am 9.7 5.9 3.9 67 2.6 SW 13 17 7 9 - - 1.8
20/12:00am 9.9 6.9 4.1 67 2.6 SW 9 15 5 8 - - 1.8

Other Formats:

Comma delimited format used in spreadsheet applications
http://www.bom.gov.au/fwo/IDN60801/IDN60801.94757.axf

JavaScript Object Notation format (JSON) in row-major order
http://www.bom.gov.au/fwo/IDN60801/IDN60801.94757.json